createdAt,value
2018-07-21T00:00:09.710Z,8.10
2018-07-21T00:02:38.268Z,7.70
2018-07-21T00:05:07.943Z,8.07
2018-07-21T00:07:37.532Z,7.93
2018-07-21T00:10:06.152Z,8.90
2018-07-21T00:12:34.720Z,8.00
2018-07-21T00:15:03.403Z,8.90
2018-07-21T00:17:32.063Z,7.60
2018-07-21T00:20:00.778Z,8.27
2018-07-21T00:22:29.352Z,8.13
2018-07-21T00:24:57.904Z,7.73
2018-07-21T00:27:26.674Z,8.30
2018-07-21T00:29:55.211Z,7.23
2018-07-21T00:32:23.824Z,8.10
2018-07-21T00:34:52.414Z,8.60
2018-07-21T00:37:20.984Z,9.17
2018-07-21T00:39:49.524Z,9.47
2018-07-21T00:42:18.555Z,8.97
2018-07-21T00:44:47.135Z,8.13
2018-07-21T00:47:16.083Z,9.50
2018-07-21T00:49:44.636Z,9.10
2018-07-21T00:52:13.176Z,7.97
2018-07-21T00:54:41.791Z,8.50
2018-07-21T00:57:10.822Z,8.50
2018-07-21T00:59:39.402Z,8.27
2018-07-21T01:02:07.979Z,9.97
2018-07-21T01:04:36.559Z,9.40
2018-07-21T01:07:05.236Z,9.00
2018-07-21T01:09:33.800Z,7.90
2018-07-21T01:12:02.364Z,7.63
2018-07-21T01:14:30.941Z,9.00
2018-07-21T01:16:59.536Z,7.63
2018-07-21T01:19:28.107Z,9.13
2018-07-21T01:21:56.705Z,8.63
2018-07-21T01:24:25.319Z,8.80
2018-07-21T01:26:54.934Z,7.60
2018-07-21T01:29:23.990Z,9.30
2018-07-21T01:31:52.708Z,7.90
2018-07-21T01:34:21.680Z,9.67
2018-07-21T01:36:50.268Z,11.20
2018-07-21T01:45:00.043Z,8.50
2018-07-21T01:47:29.224Z,8.73
2018-07-21T01:49:57.783Z,8.37
2018-07-21T01:52:26.365Z,8.30
2018-07-21T01:54:54.932Z,8.07
2018-07-21T01:57:23.774Z,8.53
2018-07-21T01:59:52.345Z,7.93
2018-07-21T02:02:21.885Z,8.70
2018-07-21T02:04:50.443Z,8.43
2018-07-21T02:07:20.540Z,8.60
2018-07-21T02:09:49.192Z,8.33
2018-07-21T02:12:17.775Z,10.57
2018-07-21T02:14:46.507Z,8.57
2018-07-21T02:17:15.161Z,8.60
2018-07-21T02:19:43.833Z,9.13
2018-07-21T02:22:12.450Z,9.27
2018-07-21T02:24:41.451Z,8.10
2018-07-21T02:27:10.292Z,8.83
2018-07-21T02:29:38.870Z,8.90
2018-07-21T02:32:07.484Z,9.53
2018-07-21T02:34:36.396Z,9.00
2018-07-21T02:37:05.087Z,8.20
2018-07-21T02:39:33.621Z,8.73
2018-07-21T02:42:02.261Z,9.30
2018-07-21T02:44:30.852Z,8.93
2018-07-21T02:46:59.406Z,9.23
2018-07-21T02:49:27.959Z,10.07
2018-07-21T02:51:56.522Z,9.30
2018-07-21T02:54:25.175Z,9.57
2018-07-21T02:56:53.719Z,8.17
2018-07-21T02:59:22.662Z,8.60
2018-07-21T03:01:51.223Z,8.73
2018-07-21T03:04:20.028Z,8.00
2018-07-21T03:06:48.603Z,9.30
2018-07-21T03:09:17.165Z,8.53
2018-07-21T03:11:45.738Z,8.43
2018-07-21T03:14:14.314Z,8.80
2018-07-21T03:16:42.859Z,8.90
2018-07-21T03:19:11.578Z,9.57
2018-07-21T03:21:40.169Z,8.13
2018-07-21T03:24:08.780Z,9.53
2018-07-21T03:26:37.487Z,8.63
2018-07-21T03:29:06.055Z,8.40
2018-07-21T03:31:34.623Z,8.87
2018-07-21T03:34:04.301Z,9.30
2018-07-21T03:36:32.864Z,8.70
2018-07-21T03:39:01.455Z,8.67
2018-07-21T03:41:30.140Z,9.47
2018-07-21T03:43:58.691Z,8.80
2018-07-21T03:46:27.264Z,8.37
2018-07-21T03:48:55.900Z,9.50
2018-07-21T03:51:25.369Z,9.43
2018-07-21T03:53:54.007Z,9.13
2018-07-21T03:56:23.030Z,9.27
2018-07-21T03:58:51.603Z,10.40
2018-07-21T04:01:20.572Z,9.40
2018-07-21T04:03:49.144Z,9.00
2018-07-21T04:06:18.598Z,9.67
2018-07-21T04:08:47.117Z,9.43
2018-07-21T04:11:16.135Z,9.23
2018-07-21T04:13:44.701Z,10.13
2018-07-21T04:16:13.420Z,10.33
2018-07-21T04:18:42.080Z,7.43
2018-07-21T04:21:11.124Z,9.40
2018-07-21T04:23:39.676Z,9.77
2018-07-21T04:26:08.261Z,10.47
2018-07-21T04:28:36.822Z,10.30
2018-07-21T04:31:05.488Z,9.80
2018-07-21T04:33:34.093Z,8.93
2018-07-21T04:36:02.640Z,9.67
2018-07-21T04:38:31.341Z,9.90
2018-07-21T04:40:59.976Z,9.93
2018-07-21T04:43:30.832Z,9.93
2018-07-21T04:45:59.476Z,10.40
2018-07-21T04:48:28.041Z,10.23
2018-07-21T04:50:56.620Z,10.67
2018-07-21T04:53:25.150Z,10.67
2018-07-21T04:55:53.724Z,9.90
2018-07-21T04:58:22.285Z,9.50
2018-07-21T05:00:50.957Z,8.90
2018-07-21T05:03:19.435Z,10.63
2018-07-21T05:05:47.991Z,10.80
2018-07-21T05:08:16.688Z,9.87
2018-07-21T05:10:45.292Z,10.73
2018-07-21T05:13:14.296Z,9.70
2018-07-21T05:15:42.899Z,10.10
2018-07-21T05:18:11.564Z,9.47
2018-07-21T05:20:40.185Z,11.00
2018-07-21T05:23:19.280Z,11.57
2018-07-21T05:25:56.121Z,10.40
2018-07-21T05:28:33.459Z,9.50
2018-07-21T05:31:14.516Z,10.20
2018-07-21T05:33:51.594Z,9.83
2018-07-21T05:36:28.660Z,10.10
2018-07-21T05:39:09.388Z,10.80
2018-07-21T05:41:46.496Z,9.40
2018-07-21T05:44:26.257Z,11.20
2018-07-21T05:47:03.652Z,10.37
2018-07-21T05:49:42.789Z,11.57
2018-07-21T05:52:20.236Z,11.73
2018-07-21T05:55:00.677Z,12.03
2018-07-21T05:57:38.009Z,12.43
2018-07-21T06:00:18.310Z,10.97
2018-07-21T06:02:57.659Z,12.57
2018-07-21T06:05:34.554Z,11.27
2018-07-21T06:08:11.745Z,11.83
2018-07-21T06:10:52.862Z,12.30
2018-07-21T06:13:37.592Z,11.20
2018-07-21T06:16:14.877Z,12.00
2018-07-21T06:18:55.303Z,12.30
2018-07-21T06:21:32.699Z,11.73
2018-07-21T06:24:09.818Z,11.27
2018-07-21T06:26:39.811Z,11.57
2018-07-21T06:29:18.682Z,11.23
2018-07-21T06:31:47.232Z,11.50
2018-07-21T06:34:15.853Z,12.67
2018-07-21T06:36:44.467Z,11.37
2018-07-21T06:39:13.558Z,11.00
2018-07-21T06:41:42.606Z,12.13
2018-07-21T06:44:11.690Z,11.73
2018-07-21T06:46:40.346Z,12.60
2018-07-21T06:49:08.951Z,11.00
2018-07-21T06:51:37.600Z,12.70
2018-07-21T06:54:06.496Z,12.17
2018-07-21T06:56:35.096Z,13.10
2018-07-21T06:59:03.697Z,13.03
2018-07-21T07:01:32.274Z,12.83
2018-07-21T07:04:00.946Z,13.20
2018-07-21T07:06:29.797Z,11.97
2018-07-21T07:08:58.545Z,12.20
2018-07-21T07:11:27.103Z,12.80
2018-07-21T07:13:55.700Z,12.30
2018-07-21T07:16:24.317Z,14.07
2018-07-21T07:18:52.814Z,11.47
2018-07-21T07:21:21.391Z,12.90
2018-07-21T07:23:49.984Z,12.27
2018-07-21T07:26:18.644Z,11.43
2018-07-21T07:28:47.209Z,12.67
2018-07-21T07:31:15.987Z,11.03
2018-07-21T07:33:44.527Z,11.50
2018-07-21T07:36:13.188Z,11.13
2018-07-21T07:38:41.831Z,11.30
2018-07-21T07:41:11.592Z,11.23
2018-07-21T07:43:40.322Z,12.10
2018-07-21T07:46:09.040Z,10.80
2018-07-21T07:48:37.612Z,11.23
2018-07-21T07:51:06.253Z,12.27
2018-07-21T07:53:35.045Z,10.60
2018-07-21T07:56:03.620Z,12.07
2018-07-21T07:58:32.199Z,10.47
2018-07-21T08:01:00.789Z,10.50
2018-07-21T08:03:32.312Z,11.73
2018-07-21T08:06:00.908Z,11.77
2018-07-21T08:08:30.263Z,11.23
2018-07-21T08:10:58.902Z,12.00
2018-07-21T08:13:27.528Z,10.70
2018-07-21T08:15:56.064Z,10.40
2018-07-21T08:18:24.649Z,11.80
2018-07-21T08:20:53.232Z,11.27
2018-07-21T08:23:21.821Z,11.07
2018-07-21T08:25:50.828Z,10.80
2018-07-21T08:28:19.881Z,11.30
2018-07-21T08:30:48.468Z,11.40
2018-07-21T08:33:17.676Z,11.17
2018-07-21T08:36:05.467Z,10.67
2018-07-21T08:38:34.043Z,11.67
2018-07-21T08:41:02.631Z,11.53
2018-07-21T08:43:31.340Z,11.20
2018-07-21T08:45:59.905Z,11.57
2018-07-21T08:48:28.448Z,11.90
2018-07-21T08:50:57.061Z,12.73
2018-07-21T08:53:25.730Z,12.50
2018-07-21T08:55:54.560Z,11.77
2018-07-21T08:58:23.619Z,11.17
2018-07-21T09:00:52.168Z,11.90
2018-07-21T09:03:20.797Z,11.10
2018-07-21T09:05:49.440Z,12.57
2018-07-21T09:08:25.456Z,11.73
2018-07-21T09:10:54.019Z,11.27
2018-07-21T09:13:22.568Z,12.30
2018-07-21T09:15:51.141Z,12.17
2018-07-21T09:18:19.868Z,11.87
2018-07-21T09:20:48.460Z,12.37
2018-07-21T09:23:18.056Z,10.77
2018-07-21T09:25:46.624Z,11.47
2018-07-21T09:28:15.179Z,12.30
2018-07-21T09:30:43.950Z,11.20
2018-07-21T09:33:13.856Z,12.13
2018-07-21T09:35:42.528Z,10.70
2018-07-21T09:38:14.255Z,11.20
2018-07-21T09:40:42.909Z,11.27
2018-07-21T09:43:14.076Z,11.40
2018-07-21T09:48:33.148Z,12.43
2018-07-21T09:51:01.762Z,11.53
2018-07-21T09:53:30.812Z,11.73
2018-07-21T09:55:59.468Z,9.97
2018-07-21T09:58:28.221Z,13.50
2018-07-21T10:01:02.202Z,12.10
2018-07-21T10:03:31.531Z,11.13
2018-07-21T10:06:01.032Z,11.57
2018-07-21T10:08:29.897Z,10.90
2018-07-21T10:10:59.264Z,11.50
2018-07-21T10:13:27.921Z,11.57
2018-07-21T10:15:56.500Z,11.63
2018-07-21T10:18:25.168Z,10.77
2018-07-21T10:20:53.728Z,10.80
2018-07-21T10:23:22.427Z,12.57
2018-07-21T10:25:56.159Z,12.10
2018-07-21T10:28:30.042Z,11.67
2018-07-21T10:30:58.589Z,11.27
2018-07-21T10:33:27.209Z,12.33
2018-07-21T10:35:56.051Z,11.83
2018-07-21T10:38:24.665Z,11.00
2018-07-21T10:40:53.387Z,11.10
2018-07-21T10:43:22.448Z,11.27
2018-07-21T10:45:51.054Z,11.57
2018-07-21T10:48:19.615Z,10.93
2018-07-21T10:50:48.248Z,11.27
2018-07-21T10:53:16.896Z,9.73
2018-07-21T10:55:45.478Z,12.40
2018-07-21T10:58:14.158Z,12.30
2018-07-21T11:00:44.427Z,12.90
2018-07-21T11:03:14.573Z,12.47
2018-07-21T11:05:43.261Z,12.40
2018-07-21T11:08:11.939Z,10.57
2018-07-21T11:10:41.210Z,11.53
2018-07-21T11:13:09.861Z,11.70
2018-07-21T11:15:38.441Z,11.60
2018-07-21T11:18:07.019Z,11.50
2018-07-21T11:20:35.841Z,11.37
2018-07-21T11:23:04.770Z,12.00
2018-07-21T11:25:35.643Z,10.70
2018-07-21T11:28:04.509Z,10.27
2018-07-21T11:30:33.302Z,10.80
2018-07-21T11:33:01.849Z,11.00
2018-07-21T11:35:30.869Z,10.43
2018-07-21T11:40:50.982Z,11.10
2018-07-21T11:43:22.290Z,10.10
2018-07-21T11:45:51.052Z,9.70
2018-07-21T11:48:20.245Z,10.70
2018-07-21T11:50:48.835Z,10.37
2018-07-21T11:53:19.084Z,10.37
2018-07-21T11:55:47.669Z,11.00
2018-07-21T11:58:16.317Z,14.53
2018-07-21T12:00:44.944Z,17.33
2018-07-21T12:03:17.930Z,13.53
2018-07-21T12:05:46.792Z,13.70
2018-07-21T12:08:15.527Z,13.00
2018-07-21T12:10:44.999Z,15.30
2018-07-21T12:13:15.283Z,15.53
2018-07-21T12:15:44.758Z,14.50
2018-07-21T12:18:13.485Z,15.53
2018-07-21T12:20:42.050Z,16.00
2018-07-21T12:23:11.117Z,15.23
2018-07-21T12:25:39.683Z,14.13
2018-07-21T12:28:08.220Z,14.53
2018-07-21T12:30:36.800Z,12.37
2018-07-21T12:33:05.421Z,12.03
2018-07-21T12:35:34.131Z,11.60
2018-07-21T12:38:02.704Z,12.63
2018-07-21T12:40:31.295Z,16.47
2018-07-21T12:42:59.854Z,14.30
2018-07-21T12:45:28.565Z,15.30
2018-07-21T12:47:57.107Z,13.77
2018-07-21T12:50:25.655Z,16.90
2018-07-21T12:52:54.625Z,14.27
2018-07-21T12:55:23.188Z,14.70
2018-07-21T12:57:51.807Z,12.60
2018-07-21T13:00:20.423Z,12.90
2018-07-21T13:02:50.549Z,13.80
2018-07-21T13:05:19.773Z,12.20
2018-07-21T13:07:48.355Z,13.33
2018-07-21T13:10:16.952Z,16.20
2018-07-21T13:12:45.551Z,15.40
2018-07-21T13:15:16.291Z,16.07
2018-07-21T13:17:44.837Z,16.43
2018-07-21T13:20:13.428Z,15.33
2018-07-21T13:22:41.978Z,18.97
2018-07-21T13:25:11.243Z,15.60
2018-07-21T13:27:39.825Z,19.10
2018-07-21T13:30:09.142Z,16.47
2018-07-21T13:32:37.814Z,20.30
2018-07-21T13:35:07.189Z,16.77
2018-07-21T13:37:35.789Z,16.67
2018-07-21T13:40:05.085Z,22.00
2018-07-21T13:42:33.927Z,20.50
2018-07-21T13:45:02.592Z,20.50
2018-07-21T13:47:32.302Z,20.60
2018-07-21T13:50:01.298Z,21.17
2018-07-21T13:52:30.947Z,21.07
2018-07-21T13:54:59.681Z,21.80
2018-07-21T13:57:28.424Z,19.87
2018-07-21T13:59:57.026Z,25.10
2018-07-21T14:02:25.864Z,20.73
2018-07-21T14:04:54.531Z,22.10
2018-07-21T14:07:27.802Z,22.87
2018-07-21T14:09:56.351Z,20.37
2018-07-21T14:12:25.096Z,25.03
2018-07-21T14:14:53.837Z,22.83
2018-07-21T14:17:22.445Z,26.37
2018-07-21T14:19:51.296Z,20.53
2018-07-21T14:22:19.975Z,24.30
2018-07-21T14:24:48.603Z,23.43
2018-07-21T14:27:21.417Z,19.30
2018-07-21T14:29:50.798Z,25.07
2018-07-21T14:32:19.731Z,21.67
2018-07-21T14:34:48.554Z,22.53
2018-07-21T14:37:17.347Z,19.00
2018-07-21T14:39:45.967Z,18.57
2018-07-21T14:42:14.593Z,19.40
2018-07-21T14:44:43.238Z,17.87
2018-07-21T14:47:12.453Z,17.70
2018-07-21T14:49:41.064Z,16.60
2018-07-21T14:52:09.704Z,20.43
2018-07-21T14:54:38.440Z,18.50
2018-07-21T14:57:07.015Z,20.40
2018-07-21T14:59:35.732Z,19.20
2018-07-21T15:02:04.656Z,19.50
2018-07-21T15:04:33.256Z,19.00
2018-07-21T15:07:01.865Z,16.67
2018-07-21T15:09:30.639Z,18.27
2018-07-21T15:11:59.885Z,16.23
2018-07-21T15:14:28.670Z,16.73
2018-07-21T15:16:57.514Z,15.90
2018-07-21T15:19:26.212Z,19.10
2018-07-21T15:21:54.820Z,19.20
2018-07-21T15:24:23.553Z,18.03
2018-07-21T15:26:52.371Z,14.83
2018-07-21T15:29:21.687Z,17.30
2018-07-21T15:31:50.369Z,18.70
2018-07-21T15:34:18.983Z,18.57
2018-07-21T15:36:48.088Z,16.40
2018-07-21T15:39:16.743Z,15.93
2018-07-21T15:41:45.568Z,18.87
2018-07-21T15:44:14.161Z,20.40
2018-07-21T15:46:42.763Z,18.30
2018-07-21T15:49:11.417Z,20.37
2018-07-21T15:51:40.084Z,19.33
2018-07-21T15:54:08.697Z,21.70
2018-07-21T15:56:37.394Z,18.07
2018-07-21T15:59:05.981Z,19.13
2018-07-21T16:01:34.778Z,19.07
2018-07-21T16:04:03.389Z,15.30
2018-07-21T16:06:32.832Z,21.83
2018-07-21T16:09:01.457Z,16.67
2018-07-21T16:11:30.067Z,17.30
2018-07-21T16:13:58.632Z,17.07
2018-07-21T16:16:27.198Z,16.83
2018-07-21T16:18:55.768Z,23.17
2018-07-21T16:21:24.554Z,18.57
2018-07-21T16:23:53.118Z,20.60
2018-07-21T16:26:21.679Z,18.63
2018-07-21T16:28:50.338Z,17.33
2018-07-21T16:31:18.894Z,17.63
2018-07-21T16:33:47.528Z,21.40
2018-07-21T16:36:16.150Z,15.50
2018-07-21T16:38:45.345Z,18.60
2018-07-21T16:41:14.412Z,17.97
2018-07-21T16:43:43.048Z,21.23
2018-07-21T16:46:11.788Z,19.10
2018-07-21T16:48:40.607Z,19.50
2018-07-21T16:51:09.476Z,19.70
2018-07-21T16:53:38.570Z,17.00
2018-07-21T16:56:07.389Z,18.00
2018-07-21T16:58:35.988Z,17.47
2018-07-21T17:01:05.233Z,17.33
2018-07-21T17:03:34.420Z,19.10
2018-07-21T17:06:03.496Z,16.50
2018-07-21T17:08:32.543Z,18.70
2018-07-21T17:11:01.586Z,16.23
2018-07-21T17:13:32.683Z,20.07
2018-07-21T17:16:03.326Z,18.50
2018-07-21T17:18:32.489Z,18.43
2018-07-21T17:21:02.389Z,19.67
2018-07-21T17:23:31.817Z,17.90
2018-07-21T17:26:02.591Z,17.50
2018-07-21T17:28:32.164Z,19.10
2018-07-21T17:31:02.117Z,18.60
2018-07-21T17:33:31.593Z,15.03
2018-07-21T17:36:00.697Z,17.70
2018-07-21T17:38:29.884Z,15.97
2018-07-21T17:40:59.021Z,14.70
2018-07-21T17:43:28.101Z,15.10
2018-07-21T17:45:57.241Z,16.10
2018-07-21T17:48:26.536Z,16.87
2018-07-21T17:50:55.625Z,18.30
2018-07-21T17:53:24.761Z,19.73
2018-07-21T17:55:53.867Z,17.53
2018-07-21T17:58:23.024Z,19.80
2018-07-21T18:00:52.244Z,20.40
2018-07-21T18:03:20.831Z,19.07
2018-07-21T18:05:51.366Z,22.97
2018-07-21T18:08:19.935Z,20.13
2018-07-21T18:10:49.073Z,18.30
2018-07-21T18:13:17.645Z,17.57
2018-07-21T18:15:46.360Z,17.90
2018-07-21T18:18:14.967Z,18.93
2018-07-21T18:20:43.678Z,19.60
2018-07-21T18:23:13.112Z,17.83
2018-07-21T18:25:41.879Z,20.93
2018-07-21T18:28:10.493Z,18.23
2018-07-21T18:30:39.085Z,20.40
2018-07-21T18:33:07.681Z,22.17
2018-07-21T18:35:36.242Z,22.30
2018-07-21T18:38:05.650Z,17.10
2018-07-21T18:40:34.240Z,17.23
2018-07-21T18:43:02.866Z,17.83
2018-07-21T18:45:31.578Z,18.57
2018-07-21T18:48:00.709Z,16.40
2018-07-21T18:50:29.354Z,19.23
2018-07-21T18:52:57.891Z,18.60
2018-07-21T18:55:26.772Z,15.60
2018-07-21T18:57:55.720Z,16.63
2018-07-21T19:00:24.405Z,17.57
2018-07-21T19:02:53.599Z,18.27
2018-07-21T19:05:22.209Z,17.40
2018-07-21T19:07:50.891Z,18.30
2018-07-21T19:10:19.569Z,21.00
2018-07-21T19:12:49.077Z,18.23
2018-07-21T19:16:22.725Z,16.30
2018-07-21T19:18:52.494Z,21.03
2018-07-21T19:21:22.514Z,19.60
2018-07-21T19:23:52.103Z,21.80
2018-07-21T19:26:25.729Z,19.70
2018-07-21T19:28:54.892Z,19.73
2018-07-21T19:31:23.530Z,19.30
2018-07-21T19:33:52.163Z,16.93
2018-07-21T19:36:20.983Z,20.20
2018-07-21T19:38:50.302Z,16.90
2018-07-21T19:41:24.436Z,18.37
2018-07-21T19:43:53.043Z,20.10
2018-07-21T19:46:21.963Z,16.00
2018-07-21T19:48:50.531Z,18.77
2018-07-21T19:51:19.163Z,20.63
2018-07-21T19:53:47.788Z,17.10
2018-07-21T19:56:16.369Z,21.60
2018-07-21T19:58:45.067Z,20.93
2018-07-21T20:01:13.645Z,19.13
2018-07-21T20:03:42.272Z,17.03
2018-07-21T20:06:11.189Z,18.30
2018-07-21T20:08:40.847Z,19.53
2018-07-21T20:11:09.470Z,21.00
2018-07-21T20:13:38.054Z,27.07
2018-07-21T20:16:06.656Z,27.07
2018-07-21T20:18:35.307Z,23.97
2018-07-21T20:21:03.949Z,23.60
2018-07-21T20:23:33.060Z,23.60
2018-07-21T20:26:01.800Z,22.97
2018-07-21T20:28:30.440Z,20.87
2018-07-21T20:30:59.023Z,20.57
2018-07-21T20:33:27.737Z,28.20
2018-07-21T20:35:56.855Z,22.60
2018-07-21T20:38:25.525Z,27.50
2018-07-21T20:40:54.158Z,26.00
2018-07-21T20:43:22.901Z,26.57
2018-07-21T20:45:51.496Z,24.00
2018-07-21T20:48:20.288Z,25.03
2018-07-21T20:50:48.887Z,22.83
2018-07-21T20:53:17.549Z,25.43
2018-07-21T20:55:46.155Z,24.30
2018-07-21T20:58:14.749Z,24.90
2018-07-21T21:00:43.298Z,24.27
2018-07-21T21:03:12.449Z,24.57
2018-07-21T21:05:41.320Z,25.30
2018-07-21T21:08:10.019Z,27.53
2018-07-21T21:10:39.077Z,26.57
2018-07-21T21:13:08.041Z,27.83
2018-07-21T21:15:36.653Z,29.10
2018-07-21T21:18:06.139Z,31.33
2018-07-21T21:20:34.692Z,29.43
2018-07-21T21:23:03.308Z,27.30
2018-07-21T21:25:32.302Z,28.00
2018-07-21T21:28:00.895Z,32.73
2018-07-21T21:30:29.577Z,32.77
2018-07-21T21:32:58.209Z,33.43
2018-07-21T21:35:26.814Z,34.80
2018-07-21T21:37:55.475Z,33.60
2018-07-21T21:40:24.087Z,31.83
2018-07-21T21:42:53.063Z,39.20
2018-07-21T21:45:21.609Z,35.77
2018-07-21T21:47:50.195Z,34.23
2018-07-21T21:50:18.796Z,33.50
2018-07-21T21:52:47.483Z,34.50
2018-07-21T21:55:16.071Z,31.97
2018-07-21T21:57:44.867Z,35.07
2018-07-21T22:00:13.786Z,28.17
2018-07-21T22:02:42.448Z,29.13
2018-07-21T22:05:12.802Z,29.40
2018-07-21T22:07:42.219Z,28.33
2018-07-21T22:10:10.835Z,32.07
2018-07-21T22:12:39.456Z,31.47
2018-07-21T22:15:16.528Z,31.40
2018-07-21T22:17:45.163Z,31.90
2018-07-21T22:20:13.749Z,29.70
2018-07-21T22:22:42.311Z,30.13
2018-07-21T22:25:11.326Z,35.13
2018-07-21T22:27:39.920Z,34.80
2018-07-21T22:30:08.575Z,33.97
2018-07-21T22:32:37.207Z,31.27
2018-07-21T22:35:05.760Z,31.27
2018-07-21T22:37:34.526Z,32.73
2018-07-21T22:40:03.103Z,33.53
2018-07-21T22:42:31.653Z,33.50
2018-07-21T22:45:00.541Z,35.40
2018-07-21T22:47:29.111Z,31.80
2018-07-21T22:49:57.704Z,31.60
2018-07-21T22:52:26.374Z,38.17
2018-07-21T22:54:55.016Z,35.33
2018-07-21T22:57:23.772Z,32.77
2018-07-21T22:59:52.533Z,32.50
2018-07-21T23:02:21.157Z,27.27
2018-07-21T23:04:49.755Z,30.50
2018-07-21T23:07:18.349Z,28.67
2018-07-21T23:09:46.948Z,27.93
2018-07-21T23:12:15.612Z,29.10
2018-07-21T23:14:44.214Z,28.80
2018-07-21T23:17:13.250Z,27.00
2018-07-21T23:19:41.860Z,28.93
2018-07-21T23:22:10.427Z,26.73
2018-07-21T23:24:39.046Z,26.17
2018-07-21T23:27:07.664Z,25.27
2018-07-21T23:29:36.302Z,23.90
2018-07-21T23:32:04.919Z,26.47
2018-07-21T23:34:33.493Z,26.87
2018-07-21T23:37:02.059Z,24.97
2018-07-21T23:39:30.668Z,23.60
2018-07-21T23:41:59.264Z,26.53
2018-07-21T23:44:27.839Z,24.80
2018-07-21T23:46:56.452Z,24.60
2018-07-21T23:49:25.033Z,22.90
2018-07-21T23:51:53.607Z,28.07
2018-07-21T23:54:22.494Z,28.80
2018-07-21T23:56:51.040Z,25.37
2018-07-21T23:59:19.659Z,24.27
